Time;durP1;ratioP1;P1;durP2;ratioP2;P2;SDS_P1;SDS_P2;PMS_P1;PMS_P2;Temp;Humidity;BMP_temperature;BMP_pressure;BME280_temperature;BME280_humidity;BME280_pressure;Samples;Min_cycle;Max_cycle;Signal;HPM_P1;HPM_P2
2022/03/26 00:00:22;;;;;;;10.18;6.32;;;19.50;51.30;;;;;;4431633;32;20063;-76
2022/03/26 00:02:49;;;;;;;10.93;6.45;;;19.50;51.40;;;;;;4445341;32;20518;-75
2022/03/26 00:05:18;;;;;;;8.80;6.18;;;19.50;51.40;;;;;;4445196;32;20092;-69
2022/03/26 00:07:44;;;;;;;9.45;6.30;;;19.50;51.40;;;;;;4445526;32;20082;-72
2022/03/26 00:10:11;;;;;;;9.48;6.45;;;19.50;51.40;;;;;;4445234;32;20207;-75
2022/03/26 00:12:41;;;;;;;13.88;6.15;;;19.50;51.40;;;;;;4445070;32;20152;-75
2022/03/26 00:15:08;;;;;;;12.48;6.97;;;19.40;51.40;;;;;;4445395;32;20101;-74
2022/03/26 00:17:34;;;;;;;11.50;6.47;;;19.40;51.40;;;;;;4445404;32;20232;-75
2022/03/26 00:20:00;;;;;;;9.77;6.60;;;19.40;51.40;;;;;;4445216;32;20182;-75
2022/03/26 00:22:26;;;;;;;7.82;5.97;;;19.40;51.40;;;;;;4445407;32;20603;-75
2022/03/26 00:24:53;;;;;;;11.13;6.00;;;19.40;51.40;;;;;;4445011;32;20068;-75
2022/03/26 00:27:18;;;;;;;9.40;6.53;;;19.40;51.40;;;;;;4431019;32;20085;-76
2022/03/26 00:29:45;;;;;;;8.73;6.22;;;19.40;51.50;;;;;;4430634;32;20074;-74
2022/03/26 00:32:11;;;;;;;9.63;7.00;;;19.40;51.50;;;;;;4430970;32;20096;-75
2022/03/26 00:34:38;;;;;;;10.15;6.18;;;19.40;51.50;;;;;;4431189;32;20098;-75
2022/03/26 00:37:05;;;;;;;9.70;6.47;;;19.30;51.50;;;;;;4444799;32;20400;-76
2022/03/26 00:39:31;;;;;;;9.95;6.93;;;19.30;51.50;;;;;;4444870;32;20066;-76
2022/03/26 00:41:57;;;;;;;8.48;5.60;;;19.30;51.50;;;;;;4444887;32;20110;-76
2022/03/26 00:44:24;;;;;;;8.40;6.32;;;19.30;51.60;;;;;;4431064;32;20094;-75
2022/03/26 00:46:50;;;;;;;9.82;6.50;;;19.20;51.60;;;;;;4445134;32;20086;-75
2022/03/26 00:49:18;;;;;;;10.60;6.43;;;19.30;51.60;;;;;;4445154;32;20059;-75
2022/03/26 00:51:46;;;;;;;11.20;6.55;;;19.20;51.60;;;;;;4431239;32;20066;-76
2022/03/26 00:54:12;;;;;;;9.27;6.75;;;19.20;51.60;;;;;;4431153;32;20082;-75
2022/03/26 00:56:40;;;;;;;10.00;6.05;;;19.20;51.70;;;;;;4431023;32;20415;-76
2022/03/26 00:59:06;;;;;;;11.23;6.47;;;19.20;51.70;;;;;;4445050;32;20093;-76
2022/03/26 01:01:33;;;;;;;9.57;6.57;;;19.20;51.70;;;;;;4444861;32;20416;-75
2022/03/26 01:04:00;;;;;;;9.48;6.03;;;19.20;51.70;;;;;;4445016;32;20102;-75
2022/03/26 01:06:26;;;;;;;8.80;6.18;;;19.20;51.80;;;;;;4444512;32;20078;-76
2022/03/26 01:08:53;;;;;;;10.23;5.93;;;19.20;51.80;;;;;;4445054;32;20078;-75
2022/03/26 01:11:20;;;;;;;8.85;6.20;;;19.10;51.80;;;;;;4444893;32;20089;-75
2022/03/26 01:13:48;;;;;;;8.95;6.00;;;19.10;51.80;;;;;;4444993;32;20508;-75
2022/03/26 01:16:14;;;;;;;9.15;6.22;;;19.10;51.80;;;;;;4444935;32;20067;-76
2022/03/26 01:18:41;;;;;;;8.52;5.70;;;19.10;51.80;;;;;;4430732;32;20078;-76
2022/03/26 01:21:07;;;;;;;8.90;6.25;;;19.10;51.80;;;;;;4444670;32;20075;-75
2022/03/26 01:23:34;;;;;;;11.35;6.00;;;19.10;51.80;;;;;;4444697;32;20082;-76
2022/03/26 01:26:01;;;;;;;9.07;6.82;;;19.10;51.80;;;;;;4444500;32;20229;-75
2022/03/26 01:28:26;;;;;;;9.13;6.38;;;19.00;51.80;;;;;;4430987;32;20240;-75
2022/03/26 01:30:53;;;;;;;8.38;5.97;;;19.00;51.80;;;;;;4444788;32;20062;-75
2022/03/26 01:33:19;;;;;;;9.90;5.97;;;19.00;51.90;;;;;;4444760;32;20093;-69
2022/03/26 01:35:45;;;;;;;8.63;6.25;;;19.00;51.80;;;;;;4444850;32;20482;-69
2022/03/26 01:38:11;;;;;;;8.10;6.28;;;19.00;51.90;;;;;;4444568;32;20158;-69
2022/03/26 01:40:37;;;;;;;8.45;5.75;;;19.00;51.90;;;;;;4446658;32;20096;-69
2022/03/26 01:43:04;;;;;;;11.13;6.38;;;19.00;51.90;;;;;;4447648;32;20092;-68
2022/03/26 01:45:30;;;;;;;9.75;5.90;;;18.90;51.90;;;;;;4447468;32;20232;-68
2022/03/26 01:47:57;;;;;;;10.48;6.70;;;18.90;51.90;;;;;;4447628;32;20073;-68
2022/03/26 01:50:27;;;;;;;8.88;6.50;;;18.90;52.00;;;;;;4447713;32;20125;-69
2022/03/26 01:52:53;;;;;;;8.93;6.38;;;18.90;52.00;;;;;;4447848;32;20090;-70
2022/03/26 01:55:21;;;;;;;8.18;6.00;;;18.90;52.00;;;;;;4447444;32;20090;-68
2022/03/26 01:57:48;;;;;;;7.88;6.05;;;18.90;52.00;;;;;;4447351;32;20066;-68
2022/03/26 02:00:14;;;;;;;11.70;6.35;;;18.90;52.00;;;;;;4447018;32;20105;-70
2022/03/26 02:02:44;;;;;;;8.60;6.55;;;18.90;52.00;;;;;;4447599;32;20231;-69
2022/03/26 02:05:11;;;;;;;14.50;6.60;;;18.90;52.00;;;;;;4447526;32;20488;-69
2022/03/26 02:07:39;;;;;;;10.73;7.00;;;18.90;52.00;;;;;;4447305;32;20565;-69
2022/03/26 02:10:07;;;;;;;9.32;7.15;;;18.90;52.00;;;;;;4433598;32;20074;-69
2022/03/26 02:12:33;;;;;;;10.65;7.25;;;18.90;52.10;;;;;;4446754;32;20208;-69
2022/03/26 02:14:59;;;;;;;10.20;7.05;;;18.90;52.10;;;;;;4447349;32;20580;-69
2022/03/26 02:17:25;;;;;;;9.80;6.50;;;18.80;52.10;;;;;;4446896;32;20058;-69
2022/03/26 02:19:53;;;;;;;7.88;6.40;;;18.80;52.10;;;;;;4446891;32;20070;-69
2022/03/26 02:22:20;;;;;;;8.35;6.30;;;18.80;52.10;;;;;;4432949;32;20145;-69
2022/03/26 02:24:47;;;;;;;9.25;6.50;;;18.80;52.10;;;;;;4447042;32;20160;-69
2022/03/26 02:27:12;;;;;;;9.30;6.22;;;18.80;52.20;;;;;;4446670;32;20519;-69
2022/03/26 02:29:38;;;;;;;8.95;6.30;;;18.80;52.10;;;;;;4446695;32;20092;-69
2022/03/26 02:32:05;;;;;;;9.40;6.00;;;18.80;52.10;;;;;;4446945;32;20085;-69
2022/03/26 02:34:31;;;;;;;8.90;6.40;;;18.70;52.10;;;;;;4446886;32;20633;-69
2022/03/26 02:36:58;;;;;;;9.60;6.10;;;18.70;52.10;;;;;;4446828;32;20285;-69
2022/03/26 02:39:25;;;;;;;10.40;5.85;;;18.70;52.10;;;;;;4446847;32;20613;-69
2022/03/26 02:41:51;;;;;;;10.43;6.70;;;18.70;52.10;;;;;;4446944;32;20080;-69
2022/03/26 02:44:17;;;;;;;8.52;6.68;;;18.70;52.10;;;;;;4446930;32;20291;-70
2022/03/26 02:46:45;;;;;;;7.63;6.05;;;18.70;52.10;;;;;;4446314;32;20094;-69
2022/03/26 02:49:12;;;;;;;8.18;6.40;;;18.70;52.10;;;;;;4446730;32;20167;-69
2022/03/26 02:51:39;;;;;;;9.38;7.07;;;18.70;52.10;;;;;;4446137;32;20101;-70
2022/03/26 02:54:05;;;;;;;8.70;6.53;;;18.70;52.10;;;;;;4446599;32;20163;-69
2022/03/26 02:56:32;;;;;;;8.05;6.38;;;18.70;52.10;;;;;;4447345;32;20090;-69
2022/03/26 02:58:58;;;;;;;9.90;6.55;;;18.70;52.10;;;;;;4448270;32;20102;-70
2022/03/26 03:01:24;;;;;;;7.95;6.18;;;18.60;52.10;;;;;;4447204;32;20296;-70
2022/03/26 03:03:50;;;;;;;9.68;7.00;;;18.60;52.10;;;;;;4432579;32;20058;-69
2022/03/26 03:06:17;;;;;;;10.68;6.40;;;18.60;52.10;;;;;;4446067;32;20074;-69
2022/03/26 03:08:43;;;;;;;7.90;6.32;;;18.60;52.10;;;;;;4446363;32;20091;-69
2022/03/26 03:11:11;;;;;;;9.25;6.40;;;18.60;52.10;;;;;;4446241;32;20101;-69
2022/03/26 03:13:38;;;;;;;8.93;6.47;;;18.60;52.10;;;;;;4446017;32;20496;-69
2022/03/26 03:16:04;;;;;;;8.25;6.25;;;18.60;52.10;;;;;;4432358;32;20504;-69
2022/03/26 03:18:30;;;;;;;9.45;6.65;;;18.60;52.20;;;;;;4446548;32;20085;-70
2022/03/26 03:20:56;;;;;;;9.73;7.10;;;18.60;52.10;;;;;;4445940;32;20140;-69
2022/03/26 03:23:22;;;;;;;10.40;6.88;;;18.60;52.10;;;;;;4446340;32;20093;-69
2022/03/26 03:25:48;;;;;;;9.55;6.35;;;18.60;52.20;;;;;;4445727;32;20124;-69
2022/03/26 03:28:14;;;;;;;8.82;7.05;;;18.50;52.10;;;;;;4446124;32;20419;-69
2022/03/26 03:30:41;;;;;;;8.60;6.13;;;18.50;52.00;;;;;;4445966;32;20200;-69
2022/03/26 03:33:07;;;;;;;8.18;6.68;;;18.50;52.10;;;;;;4445981;32;20081;-69
2022/03/26 03:35:33;;;;;;;9.30;6.43;;;18.50;52.10;;;;;;4446037;32;20137;-69
2022/03/26 03:37:59;;;;;;;9.95;7.30;;;18.50;52.10;;;;;;4446597;32;20361;-69
2022/03/26 03:40:24;;;;;;;8.85;6.72;;;18.50;52.10;;;;;;4445915;32;20137;-69
2022/03/26 03:42:50;;;;;;;10.20;6.95;;;18.50;52.10;;;;;;4445861;32;20133;-69
2022/03/26 03:45:16;;;;;;;9.63;7.20;;;18.50;52.10;;;;;;4445812;32;20089;-69
2022/03/26 03:47:42;;;;;;;10.75;7.00;;;18.50;52.10;;;;;;4445704;32;20066;-69
2022/03/26 03:50:08;;;;;;;9.27;7.00;;;18.50;52.10;;;;;;4445954;32;20106;-69
2022/03/26 03:52:34;;;;;;;10.02;7.32;;;18.40;52.00;;;;;;4445698;32;20090;-69
2022/03/26 03:55:00;;;;;;;9.00;6.90;;;18.50;52.10;;;;;;4445407;32;20062;-69
2022/03/26 03:57:26;;;;;;;10.40;7.10;;;18.40;52.10;;;;;;4445873;32;20078;-69
2022/03/26 03:59:52;;;;;;;9.43;6.85;;;18.40;52.10;;;;;;4445662;32;20090;-69
2022/03/26 04:02:20;;;;;;;8.70;6.57;;;18.40;52.10;;;;;;4445365;32;20499;-69
2022/03/26 04:04:45;;;;;;;9.27;6.72;;;18.40;52.10;;;;;;4445064;32;20081;-69
2022/03/26 04:07:11;;;;;;;9.38;6.95;;;18.40;52.10;;;;;;4445578;32;20484;-69
2022/03/26 04:09:37;;;;;;;8.93;7.15;;;18.40;52.10;;;;;;4445696;32;20211;-69
2022/03/26 04:12:04;;;;;;;8.45;6.63;;;18.40;52.10;;;;;;4445453;32;20063;-69
2022/03/26 04:14:31;;;;;;;9.80;7.28;;;18.40;52.10;;;;;;4445331;32;20066;-69
2022/03/26 04:16:57;;;;;;;8.68;6.40;;;18.30;52.00;;;;;;4445389;32;20093;-69
2022/03/26 04:19:23;;;;;;;9.13;6.97;;;18.40;52.10;;;;;;4445395;32;20066;-69
2022/03/26 04:21:49;;;;;;;10.75;6.85;;;18.40;52.10;;;;;;4445389;32;20167;-69
2022/03/26 04:24:16;;;;;;;10.70;6.90;;;18.40;52.10;;;;;;4445321;32;20439;-69
2022/03/26 04:26:43;;;;;;;8.68;6.45;;;18.30;52.10;;;;;;4445192;32;20077;-69
2022/03/26 04:29:09;;;;;;;8.82;6.60;;;18.30;52.10;;;;;;4445215;32;20082;-69
2022/03/26 04:31:34;;;;;;;8.73;6.43;;;18.30;52.10;;;;;;4445289;32;20069;-69
2022/03/26 04:34:01;;;;;;;8.43;6.53;;;18.30;52.10;;;;;;4445184;32;20132;-69
2022/03/26 04:36:29;;;;;;;8.02;6.60;;;18.30;52.10;;;;;;4445147;32;20223;-69
2022/03/26 04:38:59;;;;;;;8.82;6.57;;;18.30;52.10;;;;;;4431372;32;20176;-69
2022/03/26 04:41:25;;;;;;;8.45;6.70;;;18.30;52.10;;;;;;4445170;32;20062;-69
2022/03/26 04:43:51;;;;;;;8.57;6.63;;;18.30;52.10;;;;;;4445104;32;20085;-70
2022/03/26 04:46:17;;;;;;;9.68;6.60;;;18.30;52.10;;;;;;4445025;32;20097;-69
2022/03/26 04:48:45;;;;;;;9.48;7.05;;;18.30;52.10;;;;;;4444805;32;20066;-69
2022/03/26 04:51:12;;;;;;;8.02;6.75;;;18.20;52.10;;;;;;4445277;32;20078;-69
2022/03/26 04:53:39;;;;;;;8.68;6.85;;;18.20;52.10;;;;;;4445015;32;20098;-69
2022/03/26 04:56:05;;;;;;;10.07;6.78;;;18.20;53.00;;;;;;4445091;32;20074;-69
2022/03/26 04:58:32;;;;;;;9.35;6.25;;;18.20;52.10;;;;;;4445000;32;20224;-69
2022/03/26 05:00:57;;;;;;;8.05;6.65;;;18.20;52.10;;;;;;4444997;32;20573;-69
2022/03/26 05:03:24;;;;;;;8.20;6.50;;;18.20;52.10;;;;;;4444706;32;20070;-69
2022/03/26 05:05:50;;;;;;;7.43;6.60;;;18.20;52.10;;;;;;4444970;32;20077;-69
2022/03/26 05:08:16;;;;;;;10.82;7.30;;;18.20;52.10;;;;;;4431215;32;20362;-69
2022/03/26 05:10:41;;;;;;;10.20;7.15;;;18.20;52.10;;;;;;4445175;32;20074;-69
2022/03/26 05:13:07;;;;;;;8.65;6.45;;;18.10;53.00;;;;;;4444564;32;20128;-69
2022/03/26 05:15:33;;;;;;;8.50;6.80;;;18.10;52.10;;;;;;4446880;32;20066;-69
2022/03/26 05:17:59;;;;;;;8.80;7.00;;;18.10;52.10;;;;;;4434108;32;20563;-70
2022/03/26 05:20:25;;;;;;;9.18;6.95;;;18.10;52.10;;;;;;4448018;32;20074;-69
2022/03/26 05:22:52;;;;;;;7.90;6.25;;;18.10;52.10;;;;;;4421409;32;20167;-69
2022/03/26 05:25:19;;;;;;;7.88;6.28;;;18.10;52.10;;;;;;4433952;32;20560;-69
2022/03/26 05:27:47;;;;;;;9.38;7.07;;;18.10;52.10;;;;;;4447488;32;20078;-69
2022/03/26 05:30:14;;;;;;;9.52;7.20;;;18.10;52.10;;;;;;4447871;32;20555;-69
2022/03/26 05:32:40;;;;;;;9.02;6.75;;;18.10;52.10;;;;;;4447715;32;20080;-69
2022/03/26 05:35:11;;;;;;;7.57;5.97;;;18.10;52.10;;;;;;4447459;32;20094;-69
2022/03/26 05:37:38;;;;;;;8.80;7.00;;;18.10;52.10;;;;;;4447638;32;20389;-69
2022/03/26 05:40:05;;;;;;;9.75;6.47;;;18.10;52.10;;;;;;4447407;32;20075;-69
2022/03/26 05:42:31;;;;;;;7.82;6.60;;;18.00;52.10;;;;;;4447353;32;20172;-69
2022/03/26 05:44:57;;;;;;;8.25;6.65;;;18.00;52.10;;;;;;4447529;32;20070;-68
2022/03/26 05:47:26;;;;;;;8.95;6.65;;;18.00;52.10;;;;;;4447700;32;20136;-69
2022/03/26 05:49:52;;;;;;;8.43;6.63;;;18.00;52.10;;;;;;4434014;32;20216;-69
2022/03/26 05:52:17;;;;;;;8.50;7.00;;;18.00;52.10;;;;;;4447715;32;20088;-70
2022/03/26 05:54:43;;;;;;;8.90;6.43;;;18.00;52.10;;;;;;4447176;32;20381;-68
2022/03/26 05:57:09;;;;;;;7.45;6.30;;;18.00;52.10;;;;;;4447694;32;20077;-68
2022/03/26 05:59:36;;;;;;;8.75;6.45;;;18.00;52.10;;;;;;4447103;32;20082;-69
2022/03/26 06:02:02;;;;;;;8.18;6.47;;;18.00;52.10;;;;;;4447291;32;20078;-70
2022/03/26 06:04:28;;;;;;;8.65;6.43;;;18.00;52.20;;;;;;4447061;32;20071;-69
2022/03/26 06:06:54;;;;;;;8.07;6.35;;;18.00;52.10;;;;;;4447188;32;20447;-69
2022/03/26 06:09:20;;;;;;;8.95;6.35;;;18.00;52.10;;;;;;4447010;32;20179;-69
2022/03/26 06:11:46;;;;;;;7.65;6.07;;;18.00;52.20;;;;;;4447187;32;20099;-69
2022/03/26 06:14:12;;;;;;;7.03;5.53;;;18.00;52.20;;;;;;4446833;32;20074;-68
2022/03/26 06:16:38;;;;;;;7.57;6.22;;;17.90;52.10;;;;;;4433234;32;20547;-70
2022/03/26 06:19:04;;;;;;;6.78;5.53;;;17.90;52.10;;;;;;4447125;32;20400;-68
2022/03/26 06:21:30;;;;;;;7.75;5.95;;;17.90;52.10;;;;;;4432819;32;20143;-69
2022/03/26 06:23:58;;;;;;;7.72;5.97;;;17.90;52.10;;;;;;4446711;32;20121;-69
2022/03/26 06:26:28;;;;;;;7.13;5.97;;;17.90;52.10;;;;;;4446160;32;20073;-69
2022/03/26 06:28:54;;;;;;;7.65;5.68;;;17.90;52.10;;;;;;4446934;32;20094;-69
2022/03/26 06:31:20;;;;;;;6.50;5.57;;;17.90;52.10;;;;;;4446947;32;20078;-69
2022/03/26 06:33:46;;;;;;;6.25;5.20;;;17.90;52.10;;;;;;4447023;32;20172;-69
2022/03/26 06:36:13;;;;;;;6.88;6.00;;;17.90;52.10;;;;;;4446764;32;20086;-69
2022/03/26 06:38:41;;;;;;;6.97;5.63;;;17.90;52.10;;;;;;4446799;32;20101;-69
2022/03/26 06:41:14;;;;;;;6.55;5.20;;;17.90;52.20;;;;;;4446791;32;20085;-69
2022/03/26 06:43:41;;;;;;;7.32;5.13;;;17.90;52.10;;;;;;4446941;32;20089;-69
2022/03/26 06:46:07;;;;;;;6.03;4.70;;;17.90;52.20;;;;;;4446443;32;20397;-69
2022/03/26 06:48:34;;;;;;;7.82;4.53;;;17.80;52.10;;;;;;4446670;32;20662;-70
2022/03/26 06:51:03;;;;;;;6.82;4.93;;;17.90;52.20;;;;;;4446828;32;20199;-69
2022/03/26 06:53:35;;;;;;;7.00;4.75;;;17.90;52.30;;;;;;4446300;32;20131;-69
2022/03/26 06:56:07;;;;;;;5.03;4.18;;;17.90;52.30;;;;;;4446550;32;20075;-69
2022/03/26 06:58:34;;;;;;;6.28;3.97;;;17.90;52.30;;;;;;4446564;32;20163;-69
2022/03/26 07:01:01;;;;;;;6.55;4.32;;;17.90;52.20;;;;;;4446566;32;20078;-69
2022/03/26 07:03:27;;;;;;;5.45;4.32;;;17.90;52.30;;;;;;4446470;32;20086;-69
2022/03/26 07:05:54;;;;;;;5.90;4.10;;;17.90;52.30;;;;;;4445998;32;20641;-70
2022/03/26 07:08:20;;;;;;;4.40;3.60;;;17.90;52.30;;;;;;4446415;32;20086;-69
2022/03/26 07:10:46;;;;;;;4.30;3.60;;;17.90;52.30;;;;;;4446331;32;20152;-69
2022/03/26 07:13:13;;;;;;;4.85;4.18;;;17.90;52.30;;;;;;4446100;32;20090;-69
2022/03/26 07:15:39;;;;;;;4.03;3.30;;;17.90;52.30;;;;;;4445921;32;20122;-69
2022/03/26 07:18:05;;;;;;;4.22;3.50;;;17.90;52.30;;;;;;4445977;32;20129;-69
2022/03/26 07:20:31;;;;;;;5.35;3.80;;;17.90;52.30;;;;;;4445970;32;20207;-69
2022/03/26 07:22:57;;;;;;;3.58;3.20;;;17.90;52.30;;;;;;4446181;32;20208;-69
2022/03/26 07:25:23;;;;;;;5.13;3.65;;;17.90;52.30;;;;;;4445816;32;20086;-69
2022/03/26 07:27:49;;;;;;;3.85;3.45;;;17.90;52.30;;;;;;4446315;32;20070;-70
2022/03/26 07:30:15;;;;;;;5.55;4.00;;;17.90;52.30;;;;;;4432316;32;20073;-69
2022/03/26 07:32:41;;;;;;;4.05;3.53;;;17.90;52.30;;;;;;4445735;32;20059;-69
2022/03/26 07:35:07;;;;;;;4.05;3.08;;;17.90;52.30;;;;;;4445948;32;20096;-70
2022/03/26 07:37:34;;;;;;;8.68;4.90;;;17.90;52.30;;;;;;4445551;32;20093;-71
2022/03/26 07:40:00;;;;;;;14.60;8.48;;;18.00;52.40;;;;;;4446144;32;20223;-70
2022/03/26 07:42:27;;;;;;;36.15;23.77;;;18.00;52.30;;;;;;4445608;32;20121;-70
2022/03/26 07:44:53;;;;;;;26.67;17.55;;;18.00;52.20;;;;;;4446097;32;20171;-70
2022/03/26 07:47:19;;;;;;;28.30;19.60;;;18.00;52.40;;;;;;4445517;32;20572;-70
2022/03/26 07:49:45;;;;;;;26.50;18.95;;;18.00;52.40;;;;;;4445786;32;20129;-70
2022/03/26 07:52:11;;;;;;;32.20;20.38;;;18.00;52.50;;;;;;4445969;32;20069;-70
2022/03/26 07:54:38;;;;;;;29.40;19.75;;;18.00;52.80;;;;;;4445966;32;20172;-70
2022/03/26 07:57:04;;;;;;;30.60;20.13;;;18.00;52.90;;;;;;4445687;32;20092;-70
2022/03/26 07:59:31;;;;;;;26.85;18.02;;;18.00;53.20;;;;;;4445597;32;20080;-71
2022/03/26 08:01:58;;;;;;;28.25;18.55;;;18.10;53.30;;;;;;4445587;32;20066;-71
2022/03/26 08:04:24;;;;;;;28.40;17.65;;;18.10;53.50;;;;;;4431425;32;20514;-70
2022/03/26 08:06:49;;;;;;;23.45;15.68;;;18.10;53.60;;;;;;4431511;32;20066;-70
2022/03/26 08:09:15;;;;;;;22.50;14.70;;;18.10;53.80;;;;;;4445529;32;20369;-70
2022/03/26 08:11:42;;;;;;;20.70;15.02;;;18.10;53.90;;;;;;4445951;32;20454;-71
2022/03/26 08:14:08;;;;;;;21.98;14.45;;;18.20;54.00;;;;;;4445491;32;20124;-71
2022/03/26 08:16:35;;;;;;;21.95;13.88;;;18.20;54.00;;;;;;4445535;32;20066;-71
2022/03/26 08:19:00;;;;;;;23.10;13.43;;;18.20;54.00;;;;;;4431899;32;20090;-71
2022/03/26 08:21:26;;;;;;;20.67;12.77;;;18.20;54.00;;;;;;4445182;32;20066;-71
2022/03/26 08:23:54;;;;;;;19.30;12.95;;;18.20;54.00;;;;;;4445526;32;20080;-71
2022/03/26 08:26:22;;;;;;;19.05;13.05;;;18.20;54.00;;;;;;4431518;32;20098;-72
2022/03/26 08:28:49;;;;;;;15.82;11.00;;;18.20;54.00;;;;;;4445527;32;20223;-70
2022/03/26 08:31:17;;;;;;;17.98;11.20;;;18.30;54.10;;;;;;4445225;32;20074;-70
2022/03/26 08:33:44;;;;;;;18.05;10.35;;;18.20;54.10;;;;;;4445271;32;20078;-70
2022/03/26 08:36:11;;;;;;;14.52;10.07;;;18.20;54.00;;;;;;4445092;32;20084;-71
2022/03/26 08:38:37;;;;;;;13.77;9.95;;;18.30;54.10;;;;;;4445436;32;20074;-70
2022/03/26 08:41:03;;;;;;;14.25;9.60;;;18.30;54.10;;;;;;4445130;32;20220;-70
2022/03/26 08:43:29;;;;;;;13.02;9.38;;;18.30;54.10;;;;;;4445382;32;20156;-71
2022/03/26 08:45:55;;;;;;;15.35;8.35;;;18.30;54.10;;;;;;4445060;32;20089;-70
2022/03/26 08:48:21;;;;;;;11.38;8.50;;;18.30;55.10;;;;;;4445028;32;20070;-70
2022/03/26 08:50:48;;;;;;;13.13;8.75;;;18.30;54.30;;;;;;4430764;32;20090;-71
2022/03/26 08:53:14;;;;;;;11.68;7.82;;;18.30;54.40;;;;;;4445186;32;20523;-71
2022/03/26 08:55:39;;;;;;;11.80;7.78;;;18.30;54.40;;;;;;4445215;32;20074;-71
2022/03/26 08:58:07;;;;;;;8.85;7.38;;;18.30;54.40;;;;;;4444738;32;20077;-70
2022/03/26 09:00:34;;;;;;;8.95;6.88;;;18.30;54.50;;;;;;4431091;32;20085;-71
2022/03/26 09:03:02;;;;;;;10.52;7.03;;;18.40;54.50;;;;;;4445155;32;20086;-71
2022/03/26 09:05:28;;;;;;;9.50;6.72;;;18.30;54.50;;;;;;4444667;32;20093;-71
2022/03/26 09:07:54;;;;;;;9.52;6.55;;;18.40;54.60;;;;;;4444373;32;20101;-70
2022/03/26 09:10:20;;;;;;;10.75;6.60;;;18.30;54.60;;;;;;4444856;32;20075;-70
2022/03/26 09:12:47;;;;;;;7.55;6.50;;;18.40;54.60;;;;;;4431149;32;20081;-70
2022/03/26 09:15:14;;;;;;;8.98;6.80;;;18.40;54.60;;;;;;4444156;32;20531;-71
2022/03/26 09:17:40;;;;;;;9.13;5.95;;;18.40;54.60;;;;;;4445045;32;20076;-71
2022/03/26 09:20:07;;;;;;;11.13;6.18;;;18.40;54.60;;;;;;4444693;32;20090;-71
2022/03/26 09:22:34;;;;;;;9.20;5.57;;;18.40;54.60;;;;;;4444759;32;20092;-71
2022/03/26 09:25:03;;;;;;;8.77;5.45;;;18.40;54.70;;;;;;4444934;32;20089;-71
2022/03/26 09:27:29;;;;;;;7.63;5.15;;;18.40;54.70;;;;;;4430574;32;20110;-71
2022/03/26 09:29:55;;;;;;;7.78;5.25;;;18.40;54.70;;;;;;4445078;32;20085;-71
2022/03/26 09:32:22;;;;;;;6.15;4.75;;;18.40;54.70;;;;;;4444836;32;20091;-70
2022/03/26 09:34:48;;;;;;;9.23;6.25;;;18.40;54.60;;;;;;4444784;32;20096;-71
2022/03/26 09:37:15;;;;;;;12.88;9.05;;;18.40;54.50;;;;;;4444732;32;20082;-70
2022/03/26 09:39:41;;;;;;;18.65;9.43;;;18.50;54.20;;;;;;4444829;32;20089;-71
2022/03/26 09:42:09;;;;;;;12.55;9.13;;;18.50;54.10;;;;;;4430856;32;20066;-70
2022/03/26 09:44:36;;;;;;;12.43;9.27;;;18.50;53.80;;;;;;4444470;32;20089;-71
2022/03/26 09:47:05;;;;;;;16.35;9.57;;;18.60;53.40;;;;;;4445220;32;20200;-71
2022/03/26 09:49:32;;;;;;;14.93;10.18;;;18.70;53.00;;;;;;4444680;32;20129;-71
2022/03/26 09:51:57;;;;;;;21.15;10.90;;;18.70;52.70;;;;;;4445118;32;20093;-71
2022/03/26 09:54:23;;;;;;;21.10;11.65;;;18.80;52.60;;;;;;4444776;32;20585;-70
2022/03/26 09:56:50;;;;;;;18.27;12.30;;;18.80;53.30;;;;;;4430478;32;20153;-71
2022/03/26 09:59:22;;;;;;;18.00;12.90;;;18.90;52.10;;;;;;4444572;32;20507;-71
2022/03/26 10:01:49;;;;;;;21.40;13.60;;;19.00;51.80;;;;;;4445459;32;20515;-70
2022/03/26 10:04:18;;;;;;;20.42;12.10;;;19.10;51.60;;;;;;4447575;32;20086;-71
2022/03/26 10:06:55;;;;;;;18.70;11.90;;;19.20;51.10;;;;;;4447515;32;20058;-71
2022/03/26 10:09:32;;;;;;;19.13;11.60;;;19.30;50.60;;;;;;4448092;32;20104;-71
2022/03/26 10:12:04;;;;;;;13.82;9.98;;;19.40;50.10;;;;;;4447625;32;20163;-66
2022/03/26 10:14:41;;;;;;;14.63;9.85;;;19.60;49.70;;;;;;4433304;32;20160;-77
2022/03/26 10:17:13;;;;;;;15.32;9.85;;;19.60;49.50;;;;;;4447603;32;20082;-71
2022/03/26 10:19:48;;;;;;;14.23;9.65;;;19.70;49.50;;;;;;4446157;32;20120;-70
2022/03/26 10:22:28;;;;;;;16.00;9.43;;;19.80;50.20;;;;;;4447219;32;20495;-70
2022/03/26 10:24:58;;;;;;;12.73;8.13;;;19.90;49.20;;;;;;4447093;32;20093;-70
2022/03/26 10:27:24;;;;;;;14.77;7.20;;;19.90;48.80;;;;;;4447087;32;20486;-70
2022/03/26 10:30:01;;;;;;;10.93;5.53;;;20.00;48.60;;;;;;4447284;32;20573;-70
2022/03/26 10:32:50;;;;;;;10.07;5.88;;;20.10;48.70;;;;;;4447126;32;20392;-69
2022/03/26 10:35:16;;;;;;;11.38;4.97;;;20.10;48.40;;;;;;4447047;32;20088;-70
2022/03/26 10:37:44;;;;;;;9.38;4.85;;;20.20;49.20;;;;;;4446810;32;20086;-70
2022/03/26 10:40:22;;;;;;;9.52;5.07;;;20.20;48.10;;;;;;4447049;32;20084;-70
2022/03/26 10:42:56;;;;;;;8.07;4.18;;;20.20;47.80;;;;;;4446912;32;20133;-70
2022/03/26 10:45:23;;;;;;;7.38;4.28;;;20.20;47.80;;;;;;4446707;32;20172;-70
2022/03/26 10:47:52;;;;;;;7.38;4.60;;;20.20;47.80;;;;;;4446641;32;20130;-70
2022/03/26 10:50:18;;;;;;;8.18;4.93;;;20.20;47.70;;;;;;4446746;32;20074;-70
2022/03/26 10:52:44;;;;;;;8.68;4.45;;;20.20;47.40;;;;;;4446841;32;20229;-70
2022/03/26 10:55:14;;;;;;;6.82;4.15;;;20.30;47.20;;;;;;4446635;32;20442;-70
2022/03/26 10:57:46;;;;;;;14.48;4.35;;;20.30;47.10;;;;;;4447023;32;20164;-69
2022/03/26 11:00:14;;;;;;;5.85;4.22;;;20.30;47.40;;;;;;4446399;32;20176;-69
2022/03/26 11:02:41;;;;;;;9.05;3.90;;;20.30;47.50;;;;;;4446662;32;20128;-70
2022/03/26 11:05:08;;;;;;;12.60;4.80;;;20.20;47.50;;;;;;4446179;32;20093;-70
2022/03/26 11:07:36;;;;;;;7.20;4.05;;;20.20;47.70;;;;;;4446260;32;20074;-69
2022/03/26 11:10:06;;;;;;;5.53;3.63;;;20.20;47.80;;;;;;4445026;32;20098;-70
2022/03/26 11:12:33;;;;;;;6.95;3.47;;;20.10;48.10;;;;;;4445994;32;20074;-69
2022/03/26 11:15:04;;;;;;;8.35;3.65;;;20.10;48.30;;;;;;4445904;32;20200;-69
2022/03/26 11:17:38;;;;;;;13.35;3.55;;;20.00;48.50;;;;;;4446674;32;20074;-69
2022/03/26 11:20:28;;;;;;;6.13;3.15;;;19.90;48.80;;;;;;4446348;32;20089;-68
2022/03/26 11:23:05;;;;;;;8.10;3.60;;;19.90;48.90;;;;;;4446239;32;20516;-69
2022/03/26 11:25:55;;;;;;;7.90;3.63;;;19.80;49.00;;;;;;4446384;32;20530;-68
2022/03/26 11:28:39;;;;;;;10.55;4.03;;;19.80;49.40;;;;;;4439048;32;20084;-68
2022/03/26 11:31:14;;;;;;;14.00;4.47;;;19.70;49.30;;;;;;4446002;32;20089;-68
2022/03/26 11:33:40;;;;;;;6.57;3.90;;;19.60;49.50;;;;;;4446301;32;20483;-68
2022/03/26 11:36:08;;;;;;;8.07;4.60;;;19.60;49.70;;;;;;4432153;32;20082;-69
2022/03/26 11:38:34;;;;;;;12.38;4.60;;;19.50;50.00;;;;;;4446087;32;20148;-69
2022/03/26 11:41:08;;;;;;;8.93;4.43;;;19.50;50.20;;;;;;4445858;32;20234;-69
2022/03/26 11:43:43;;;;;;;6.57;4.43;;;19.50;50.20;;;;;;4446045;32;20082;-68
2022/03/26 11:52:10;;;;;;;14.40;4.95;;;19.40;50.20;;;;;;4446181;32;20113;-69
2022/03/26 11:54:35;;;;;;;20.60;6.53;;;19.30;50.20;;;;;;4445856;32;20086;-71
2022/03/26 11:57:17;;;;;;;16.23;6.28;;;19.30;50.40;;;;;;4446011;32;20085;-70
2022/03/26 11:59:44;;;;;;;20.92;6.38;;;19.20;50.40;;;;;;4445820;32;20475;-70
2022/03/26 12:02:22;;;;;;;13.20;6.38;;;19.20;50.60;;;;;;4445401;32;20137;-69
2022/03/26 12:04:57;;;;;;;18.90;6.88;;;19.20;50.50;;;;;;4445816;32;20089;-69
2022/03/26 12:07:28;;;;;;;18.25;7.50;;;19.10;50.50;;;;;;4445732;32;20408;-69
2022/03/26 12:10:11;;;;;;;17.83;7.40;;;19.10;50.50;;;;;;4445897;32;20084;-69
2022/03/26 12:12:56;;;;;;;15.48;7.13;;;19.10;50.80;;;;;;4445598;32;20098;-70
2022/03/26 12:15:25;;;;;;;14.13;7.18;;;19.10;50.50;;;;;;4437105;32;20283;-70
2022/03/26 12:18:14;;;;;;;16.50;6.75;;;19.00;50.50;;;;;;4445166;32;20077;-69
2022/03/26 12:20:50;;;;;;;17.20;7.00;;;19.00;50.40;;;;;;4440904;32;20117;-68
2022/03/26 12:23:28;;;;;;;15.35;6.85;;;19.00;50.50;;;;;;4445671;32;20208;-69
2022/03/26 12:26:07;;;;;;;14.25;6.13;;;18.90;50.50;;;;;;4445077;32;20070;-69
2022/03/26 12:28:38;;;;;;;15.18;7.28;;;18.90;50.40;;;;;;4445368;32;20527;-70
2022/03/26 12:31:06;;;;;;;15.48;6.97;;;18.90;50.50;;;;;;4445524;32;20167;-69
2022/03/26 12:33:39;;;;;;;18.02;6.68;;;18.90;50.40;;;;;;4445313;32;20423;-69
2022/03/26 12:36:06;;;;;;;17.52;6.40;;;18.80;50.30;;;;;;4444187;32;20094;-70
2022/03/26 12:38:32;;;;;;;15.75;5.88;;;18.80;50.30;;;;;;4445042;32;20504;-69
2022/03/26 12:41:00;;;;;;;14.93;5.65;;;18.80;50.30;;;;;;4444695;32;20085;-70
2022/03/26 12:43:27;;;;;;;10.90;5.60;;;18.80;50.30;;;;;;4445416;32;20408;-69
2022/03/26 12:45:54;;;;;;;16.98;5.53;;;18.80;50.40;;;;;;4444859;32;20078;-67
2022/03/26 12:48:26;;;;;;;13.98;5.30;;;18.80;50.50;;;;;;4444819;32;20070;-70
2022/03/26 12:50:53;;;;;;;11.63;4.70;;;18.70;50.40;;;;;;4444928;32;20074;-70